createdAt,value
2018-11-26T00:02:42.992Z,20.93
2018-11-26T00:07:47.579Z,22.60
2018-11-26T00:12:52.110Z,23.87
2018-11-26T00:18:15.485Z,23.70
2018-11-26T00:23:19.971Z,23.67
2018-11-26T00:28:24.505Z,25.17
2018-11-26T00:33:29.072Z,28.27
2018-11-26T00:38:33.627Z,28.27
2018-11-26T00:43:38.153Z,26.63
2018-11-26T00:48:42.668Z,28.63
2018-11-26T00:53:47.215Z,29.87
2018-11-26T00:59:10.676Z,32.57
2018-11-26T01:04:15.222Z,32.07
2018-11-26T01:09:19.775Z,33.93
2018-11-26T01:14:24.325Z,36.87
2018-11-26T01:19:28.857Z,37.90
2018-11-26T01:24:33.390Z,37.60
2018-11-26T01:29:37.908Z,37.57
2018-11-26T01:34:42.410Z,38.37
2018-11-26T01:39:46.967Z,36.80
2018-11-26T01:44:51.469Z,39.00
2018-11-26T01:49:56.002Z,38.40
2018-11-26T01:55:00.557Z,37.90
2018-11-26T02:00:24.856Z,37.63
2018-11-26T02:05:29.411Z,38.88
2018-11-26T02:10:33.915Z,39.03
2018-11-26T02:15:57.492Z,38.93
2018-11-26T02:21:02.009Z,41.77
2018-11-26T02:26:06.712Z,41.20
2018-11-26T02:31:11.229Z,40.50
2018-11-26T02:36:15.761Z,41.87
2018-11-26T02:41:20.303Z,42.03
2018-11-26T02:46:24.834Z,41.73
2018-11-26T02:51:29.393Z,41.83
2018-11-26T02:56:33.913Z,38.77
2018-11-26T03:01:38.399Z,40.13
2018-11-26T03:06:42.937Z,41.73
2018-11-26T03:11:47.542Z,43.10
2018-11-26T03:16:52.092Z,39.73
2018-11-26T03:21:56.633Z,39.63
2018-11-26T03:27:01.152Z,37.23
2018-11-26T03:32:05.687Z,38.40
2018-11-26T03:37:28.883Z,36.30
2018-11-26T03:42:33.470Z,36.10
2018-11-26T03:47:38.003Z,38.23
2018-11-26T03:52:43.678Z,36.60
2018-11-26T03:57:48.202Z,35.83
2018-11-26T04:02:52.763Z,35.43
2018-11-26T04:08:16.268Z,34.50
2018-11-26T04:13:20.842Z,34.97
2018-11-26T04:18:25.409Z,34.33
2018-11-26T04:23:29.959Z,34.60
2018-11-26T04:28:34.497Z,33.20
2018-11-26T04:33:39.015Z,34.40
2018-11-26T04:38:43.531Z,34.60
2018-11-26T04:43:48.157Z,35.70
2018-11-26T04:49:11.709Z,34.50
2018-11-26T04:54:16.302Z,33.57
2018-11-26T04:59:21.321Z,34.57
2018-11-26T05:04:25.814Z,33.37
2018-11-26T05:09:30.366Z,34.80
2018-11-26T05:14:34.919Z,35.40
2018-11-26T05:19:39.496Z,37.00
2018-11-26T05:24:44.033Z,34.63
2018-11-26T05:29:48.563Z,35.27
2018-11-26T05:34:53.199Z,35.03
2018-11-26T05:39:57.714Z,34.57
2018-11-26T05:45:02.308Z,34.58
2018-11-26T05:50:08.761Z,33.83
2018-11-26T05:55:14.435Z,34.80
2018-11-26T06:00:38.004Z,33.30
2018-11-26T06:05:42.505Z,34.30
2018-11-26T06:10:47.057Z,32.48
2018-11-26T06:15:51.578Z,33.87
2018-11-26T06:20:56.115Z,34.93
2018-11-26T06:26:00.606Z,36.23
2018-11-26T06:31:05.138Z,35.47
2018-11-26T06:36:09.651Z,34.37
2018-11-26T06:41:14.162Z,34.80
2018-11-26T06:46:37.399Z,36.73
2018-11-26T06:51:41.891Z,35.23
2018-11-26T06:56:46.425Z,36.40
2018-11-26T07:01:51.693Z,36.50
2018-11-26T07:06:55.506Z,34.57
2018-11-26T07:12:19.133Z,38.10
2018-11-26T07:17:23.704Z,37.47
2018-11-26T07:22:28.228Z,37.60
2018-11-26T07:27:32.738Z,37.60
2018-11-26T07:32:37.360Z,36.17
2018-11-26T07:37:41.923Z,35.87
2018-11-26T07:43:07.466Z,36.30
2018-11-26T07:48:12.907Z,36.53
2018-11-26T07:53:17.417Z,37.37
2018-11-26T07:58:21.947Z,38.20
2018-11-26T08:03:26.485Z,37.90
2018-11-26T08:08:31.017Z,39.40
2018-11-26T08:13:35.557Z,38.83
2018-11-26T08:18:40.175Z,39.27
2018-11-26T08:23:44.829Z,39.33
2018-11-26T08:28:49.441Z,39.40
2018-11-26T08:33:54.066Z,40.90
2018-11-26T08:39:37.107Z,40.17
2018-11-26T08:44:41.701Z,39.03
2018-11-26T08:49:46.216Z,39.47
2018-11-26T08:54:50.777Z,38.17
2018-11-26T08:59:55.315Z,36.03
2018-11-26T09:05:23.950Z,32.50
2018-11-26T09:10:23.422Z,28.93
2018-11-26T09:15:27.999Z,30.27
2018-11-26T09:20:32.518Z,29.83
2018-11-26T09:25:37.756Z,30.00
2018-11-26T09:30:41.587Z,29.17
2018-11-26T09:35:46.980Z,30.40
2018-11-26T09:40:51.486Z,29.40
2018-11-26T09:45:56.049Z,29.07
2018-11-26T09:51:00.590Z,26.75
2018-11-26T09:56:05.223Z,26.00
2018-11-26T10:01:09.729Z,24.87
2018-11-26T10:06:14.366Z,24.07
2018-11-26T10:11:18.977Z,25.83
2018-11-26T10:16:23.448Z,25.70
2018-11-26T10:21:27.953Z,25.05
2018-11-26T10:26:32.517Z,26.10
2018-11-26T10:31:37.175Z,23.70
2018-11-26T10:36:41.696Z,25.83
2018-11-26T10:41:46.263Z,25.03
2018-11-26T10:46:50.812Z,24.77
2018-11-26T10:51:55.344Z,23.30
2018-11-26T10:56:59.866Z,23.07
2018-11-26T11:02:23.101Z,21.67
2018-11-26T11:07:46.385Z,20.90
2018-11-26T11:13:09.718Z,20.87
2018-11-26T11:18:14.257Z,20.47
2018-11-26T11:23:18.902Z,21.07
2018-11-26T11:28:23.435Z,19.87
2018-11-26T11:33:28.043Z,20.08
2018-11-26T11:38:32.562Z,18.60
2018-11-26T11:43:37.133Z,17.10
2018-11-26T11:48:41.673Z,18.70
2018-11-26T11:53:46.237Z,18.20
2018-11-26T11:58:50.809Z,17.73
2018-11-26T12:03:55.404Z,19.23
2018-11-26T12:08:59.912Z,19.50
2018-11-26T12:14:04.501Z,20.23
2018-11-26T12:19:09.164Z,21.57
2018-11-26T12:24:14.555Z,20.50
2018-11-26T12:29:19.047Z,21.57
2018-11-26T12:34:24.033Z,21.47
2018-11-26T12:39:28.602Z,22.63
2018-11-26T12:44:52.168Z,23.57
2018-11-26T12:49:56.730Z,24.10
2018-11-26T12:55:01.210Z,23.20
2018-11-26T13:00:06.659Z,24.00
2018-11-26T13:05:31.069Z,25.33
2018-11-26T13:10:35.640Z,26.70
2018-11-26T13:15:40.189Z,27.40
2018-11-26T13:25:55.503Z,24.90
2018-11-26T13:31:00.052Z,25.90
2018-11-26T13:36:04.590Z,28.97
2018-11-26T13:41:09.170Z,28.70
2018-11-26T13:46:13.667Z,29.55
2018-11-26T13:51:18.232Z,29.50
2018-11-26T13:56:22.761Z,28.50
2018-11-26T14:01:27.405Z,32.53
2018-11-26T14:06:31.991Z,30.73
2018-11-26T14:11:36.594Z,31.43
2018-11-26T14:16:59.819Z,25.70
2018-11-26T14:22:04.407Z,25.93
2018-11-26T14:27:08.936Z,22.67
2018-11-26T14:32:13.416Z,20.93
2018-11-26T14:37:17.947Z,19.33
2018-11-26T14:42:22.490Z,18.03
2018-11-26T14:47:27.022Z,16.97
2018-11-26T14:52:31.570Z,17.13
2018-11-26T14:57:36.151Z,16.10
2018-11-26T15:02:41.011Z,17.93
2018-11-26T15:07:46.112Z,18.15
2018-11-26T15:12:50.685Z,20.57
2018-11-26T15:17:55.243Z,22.03
2018-11-26T15:33:53.847Z,22.60
2018-11-26T15:38:58.438Z,21.10
2018-11-26T15:44:02.956Z,21.97
2018-11-26T15:49:26.573Z,22.07
2018-11-26T16:00:06.031Z,22.83
2018-11-26T16:05:30.527Z,22.40
2018-11-26T16:10:35.868Z,21.30
2018-11-26T16:15:42.675Z,21.13
2018-11-26T16:20:48.047Z,20.77
2018-11-26T16:25:53.359Z,20.87
2018-11-26T16:41:34.786Z,22.10
2018-11-26T16:47:00.298Z,20.90
2018-11-26T16:52:05.800Z,21.37
2018-11-26T16:57:11.036Z,20.80
2018-11-26T17:02:16.724Z,21.40
2018-11-26T17:13:24.769Z,20.73
2018-11-26T17:18:49.997Z,21.05
2018-11-26T17:29:39.774Z,22.70
2018-11-26T17:40:16.150Z,24.07
2018-11-26T17:45:39.454Z,24.93
2018-11-26T17:50:45.239Z,23.20
2018-11-26T17:55:51.149Z,24.40
2018-11-26T18:01:16.010Z,23.10
2018-11-26T18:06:20.844Z,23.60
2018-11-26T18:11:25.394Z,22.35
2018-11-26T18:16:29.965Z,27.97
2018-11-26T18:21:34.583Z,23.15
2018-11-26T18:26:39.175Z,22.37
2018-11-26T18:31:43.820Z,21.93
2018-11-26T18:36:48.428Z,21.83
2018-11-26T18:41:53.202Z,21.43
2018-11-26T18:46:57.865Z,21.17
2018-11-26T18:52:02.612Z,20.93
2018-11-26T18:57:07.271Z,19.70
2018-11-26T19:02:11.900Z,20.43
2018-11-26T19:07:16.565Z,21.87
2018-11-26T19:12:21.084Z,18.43
2018-11-26T19:17:26.200Z,19.10
2018-11-26T19:22:30.655Z,18.57
2018-11-26T19:27:35.255Z,19.20
2018-11-26T19:32:39.875Z,19.10
2018-11-26T19:37:44.456Z,18.57
2018-11-26T19:42:49.267Z,18.93
2018-11-26T19:48:31.647Z,20.85
2018-11-26T19:53:36.308Z,21.60
2018-11-26T19:58:40.927Z,23.67
2018-11-26T20:04:23.491Z,23.07
2018-11-26T20:09:46.794Z,20.57
2018-11-26T20:14:51.611Z,21.27
2018-11-26T20:19:56.195Z,21.07
2018-11-26T20:25:19.825Z,21.13
2018-11-26T20:30:43.369Z,21.87
2018-11-26T20:36:07.198Z,21.63
2018-11-26T20:41:12.768Z,23.37
2018-11-26T20:46:17.462Z,24.17
2018-11-26T20:51:22.273Z,22.77
2018-11-26T20:56:27.352Z,22.20
2018-11-26T21:01:31.937Z,22.27
2018-11-26T21:06:36.652Z,21.67
2018-11-26T21:12:00.257Z,21.50
2018-11-26T21:17:24.016Z,21.77
2018-11-26T21:22:28.589Z,21.03
2018-11-26T21:27:52.703Z,21.50
2018-11-26T21:32:57.319Z,21.57
2018-11-26T21:38:01.845Z,22.07
2018-11-26T21:43:25.273Z,24.17
2018-11-26T21:48:30.217Z,26.60
2018-11-26T21:53:34.727Z,22.23
2018-11-26T21:58:39.288Z,22.50
2018-11-26T22:03:46.486Z,22.63
2018-11-26T22:09:10.494Z,24.57
2018-11-26T22:14:15.113Z,25.80
2018-11-26T22:19:19.740Z,25.63
2018-11-26T22:24:24.374Z,25.85
2018-11-26T22:29:28.967Z,25.50
2018-11-26T22:34:33.479Z,23.73
2018-11-26T22:39:57.254Z,24.10
2018-11-26T22:45:01.729Z,25.87
2018-11-26T22:50:09.244Z,24.20
2018-11-26T22:55:14.692Z,22.13
2018-11-26T23:00:47.964Z,21.33
2018-11-26T23:05:52.501Z,22.22
2018-11-26T23:10:57.079Z,22.27
2018-11-26T23:16:01.811Z,21.50
2018-11-26T23:21:06.554Z,20.90
2018-11-26T23:26:11.088Z,20.63
2018-11-26T23:31:15.709Z,20.23
2018-11-26T23:36:20.209Z,19.03
2018-11-26T23:41:25.387Z,18.17
2018-11-26T23:46:29.250Z,19.42
2018-11-26T23:51:33.830Z,17.77
2018-11-26T23:56:38.371Z,18.10
